Details From LFKS - Solenzara
To LFKJ - Campo Dell Oro
Flight Number -
Tags Standard Generated
Created
Modified
Stats Distance 39 nm / 73 km
Max Altitude 10,000 ft / 3,048 m
Waypoints 5
Social Downloads 6
Likes 0
Share VATSIM

Download

Looking for another format? Having issues loading an existing format? Contact us
Advertisement - Login to hide

Notes

Departing runway 35 LFKS. Arriving runway 2 LFKJ. Advanced Generation Settings: Turn accuracy: 20 Altitude: 10000ft Smoothed angles: True Runway changes allowed: False Calculation order: Arrival --> Departure --> Intermediates Multipass intermediates: True

Route

LFKS +42.01_+009.40 +41.93_+009.08 +41.85_+008.75 LFKJ

ID Type Via Altitude Latitude Longitude Leg Dist Tot Dist Heading (true) Name
O LFKS APT - 10,000 ft / 3,048 m 41.93637˚ 9.40526˚ - 0 nm - -
+42.01_+009.40 LATLON - 10,000 ft / 3,048 m 42.00874˚ 9.40487˚ 4 nm 4 nm 360° / 360° -
+41.93_+009.08 LATLON - 10,000 ft / 3,048 m 41.92742˚ 9.07946˚ 15 nm 19 nm 252° / 251° -
+41.85_+008.75 LATLON - 1,210 ft / 369 m 41.84611˚ 8.75406˚ 15 nm 35 nm 252° / 251° -
O LFKJ APT - 0 ft / 0 m 41.91176˚ 8.79494˚ 4 nm 39 nm 25° / 25° -

Altitude Profile

Advertisement - Login to hide

LFKS

Details ICAO LFKS (SOZ)
Name Solenzara
Region France
Timezone Europe/Paris (UTC+1.0)
Stats Elevation 27 ft / 8 m (AMSL)
Location 41.924616° 9.405323°
Runways 1
Magnetic Variation 2.453° E

METAR

LFKS 180630Z AUTO 28006KT 240V310 CAVOK 05/M05 Q1023

Decode

TAF

TAF AMD LFKS 180545Z 1806/1903 28005KT CAVOK BECMG 1810/1812 18010KT

Decode

Departure Runways

ID Width Length Bearing (true) Bearing (mag) Surface Threshold Offset Overrun Length
18 148 ft / 45 m 8,582 ft / 2,616 m 179.77° 177.32° Concrete 0 ft / 0 m 686 ft / 209 m
36 148 ft / 45 m 8,582 ft / 2,616 m 359.77° 357.32° Concrete 0 ft / 0 m 935 ft / 285 m

LFKJ

Details ICAO LFKJ (AJA)
Name Napoleon Bonaparte
Region France
Timezone Europe/Paris (UTC+1.0)
Stats Elevation 18 ft / 5 m (AMSL)
Location 41.922886° 8.799587°
Runways 2
Magnetic Variation 2.330° E

METAR

LFKJ 180630Z AUTO 04007KT 010V070 CAVOK 01/M04 Q1024 NOSIG

Decode

TAF

TAF LFKJ 180200Z 1803/1903 05005KT 9999 FEW040 TEMPO 1812/1817 SCT030TCU BKN070

Decode

Destination Runways

ID Width Length Bearing (true) Bearing (mag) Surface Threshold Offset Overrun Length
02 180 ft / 55 m 7,899 ft / 2,408 m 24.94° 22.61° Asphalt 0 ft / 0 m 164 ft / 50 m
10 98 ft / 30 m 3,447 ft / 1,051 m 94.35° 92.02° Concrete 0 ft / 0 m 164 ft / 50 m
20 180 ft / 55 m 7,899 ft / 2,408 m 204.95° 202.62° Asphalt 745 ft / 227 m 230 ft / 70 m
28 98 ft / 30 m 3,447 ft / 1,051 m 274.36° 272.03° Concrete 213 ft / 65 m 0 ft / 0 m

Approach Navaids

Runway Type Ident Frequency Range Bearing (true) Bearing (mag) Slope Elevation
02 Localiser AC 110.30 MHz 27 nm / 50 km 24.92° 22.59° - 18 ft / 5 m (AMSL)
02 Glidescope AC 110.30 MHz 27 nm / 50 km 24.92° 22.59° 3.00° 18 ft / 5 m (AMSL)
02 DME AC 110.30 MHz 27 nm / 50 km - - - 18 ft / 5 m (AMSL)

Popular Alternatives